Flight Track Log - Related Links

Times and Time Zones

All times are in EST time to prevent confusion due to time zone crossing. See the FSR411 flight status page for this flight to view local times or setup timezone preferences in your user account.

Time Position Orientation Groundspeed Altitude Reporting Facility
EST Latitude Longitude Course Direction KTS MPH feet Rate Location/Type
Thu 09:17:34 AM 40.0375 -88.1958 83° East 210 242 4,100  Level Chicago Center
Thu 09:18:36 AM 40.0444 -88.1142 84° East 236 272 7,200 2,710 Climbing Chicago Center
Thu 09:19:38 AM 40.0544 -87.9903 84° East 284 327 9,700 2,341 Climbing Chicago Center
Thu 09:20:39 AM 40.0650 -87.8708 83° East 326 375 12,000 2,587 Climbing Chicago Center
Thu 09:21:27 AM 40.0708 -87.7622 86° East 365 420 14,400 2,532 Climbing Indianapolis Center
Thu 09:22:00 AM 40.1059 -87.4022 83° East  Level FlightAware Approximate
Thu 09:22:28 AM 40.0856 -87.6142 83° East 401 461 16,600  Level Indianapolis Center
Thu 09:23:29 AM 40.0972 -87.4614 84° East 418 481 18,800 2,656 Climbing Indianapolis Center
Thu 09:24:30 AM 40.1111 -87.2981 84° East 427 491 22,000 2,607 Climbing Indianapolis Center
Thu 09:25:31 AM 40.1219 -87.1522 84° East 429 494 24,100 1,475 Climbing Indianapolis Center
Thu 09:26:32 AM 40.1353 -86.9872 84° East 444 511 25,000 443 Climbing Indianapolis Center
Thu 09:27:33 AM 40.1481 -86.8194 84° East 460 529 25,000  Level Indianapolis Center
Thu 09:28:35 AM 40.1614 -86.6500 84° East 465 535 25,000  Level Indianapolis Center
Thu 09:29:36 AM 40.1733 -86.4789 85° East 469 540 25,000  Level Indianapolis Center
Thu 09:30:37 AM 40.1861 -86.3053 84° East 475 547 25,000  Level Indianapolis Center
Thu 09:31:38 AM 40.1981 -86.1333 85° East 474 545 25,000  Level Indianapolis Center
Thu 09:32:39 AM 40.2122 -85.9319 85° East 466 536 25,000  Level Indianapolis Center
Thu 09:33:40 AM 40.2236 -85.7644 85° East 463 533 25,000  Level Indianapolis Center
Thu 09:34:42 AM 40.2333 -85.5997 86° East 458 527 25,000  Level Indianapolis Center
Thu 09:35:43 AM 40.2453 -85.4350 85° East 456 525 25,000  Level Indianapolis Center
Thu 09:36:44 AM 40.2550 -85.2719 85° East 453 521 25,000  Level Indianapolis Center
Thu 09:37:45 AM 40.2653 -85.1081 85° East 453 521 25,000  Level Indianapolis Center
Thu 09:38:46 AM 40.2764 -84.9453 85° East 452 520 25,000 -146 Level Indianapolis Center
Thu 09:39:48 AM 40.2839 -84.7861 86° East 449 517 24,700 -488 Descending Indianapolis Center
Thu 09:40:49 AM 40.2931 -84.6239 86° East 448 516 24,000 -344 Descending Indianapolis Center
Thu 09:41:50 AM 40.3036 -84.4356 86° East 437 503 24,000  Level Indianapolis Center
Thu 09:42:51 AM 40.3122 -84.2761 86° East 436 502 24,000 -878 Level Indianapolis Center
Thu 09:43:53 AM 40.3217 -84.1217 85° East 433 498 22,200 -2,244 Descending Indianapolis Center
Thu 09:44:54 AM 40.3289 -83.9706 86° East 425 489 19,400 -2,705 Descending Indianapolis Center
Thu 09:45:55 AM 40.3358 -83.8250 86° East 410 472 16,700 -2,800 Descending Indianapolis Center
Thu 09:46:09 AM 40.3367 -83.7850 88° East 382 440 15,900 -2,557 Descending Indianapolis Center
Thu 09:46:56 AM 40.3425 -83.6867 86° East 388 447 14,100 -2,532 Descending Indianapolis Center
Thu 09:47:58 AM 40.3489 -83.5369 87° East 368 423 11,300 -2,103 Descending Indianapolis Center
Thu 09:48:53 AM 40.3075 -83.4447 120° Southeast 302 348 10,000 -1,279 Descending Indianapolis Center
Thu 09:48:59 AM 40.3083 -83.4450 346° North 333 383 10,000 -1,300 Level Indianapolis Center
Thu 09:49:53 AM 40.2567 -83.3650 130° Southeast 277 319 8,700 -1,279 Descending Indianapolis Center
Thu 09:50:00 AM 40.2578 -83.3647 11° North 297 342 8,700 -1,765 Level Indianapolis Center
Thu 09:51:01 AM 40.2094 -83.2861 129° Southeast 281 323 6,700 -2,273 Descending Indianapolis Center
Thu 09:51:06 AM 40.1986 -83.2703 132° Southeast 274 315 6,200 -1,935 Descending Indianapolis Center
Thu 09:52:03 AM 40.1631 -83.2089 127° Southeast 276 318 4,700 -1,770 Descending Indianapolis Center
Thu 09:52:07 AM 40.1603 -83.1900 101° East 253 291 4,400 -1,532 Descending Indianapolis Center
Thu 09:52:50 AM 40.1556 -83.1289 96° East 228 262 3,500 -842 Descending Indianapolis Center
Thu 09:53:04 AM 40.1558 -83.1239 86° East 250 288 3,600 -600 Climbing Indianapolis Center
Thu 09:53:50 AM 40.1503 -83.0542 96° East 204 235 2,900 -590 Descending Indianapolis Center
Thu 09:54:05 AM 40.1500 -83.0478 93° East 229 264 3,000 -395 Climbing Indianapolis Center
Thu 09:55:06 AM 40.1178 -83.0119 140° Southeast 178 205 2,400 -743 Descending Indianapolis Center
Thu 09:55:58 AM 40.0822 -83.0183 188° South 138 159 1,600 -774 Descending Indianapolis Center
Thu 09:56:08 AM 40.0794 -83.0233 234° Southwest 168 193 1,600 -338 Level Indianapolis Center
Thu 09:57:09 AM 40.0769 -83.0650 266° West 151 174 1,200 -393 Descending Indianapolis Center

Login

Don't have an account? Register now (free) for customized features, flight alerts, and more!